createdAt,value
2023-01-18T00:01:42.728Z,15.60
2023-01-18T00:04:14.678Z,16.40
2023-01-18T00:06:46.926Z,12.40
2023-01-18T00:09:18.809Z,14.30
2023-01-18T00:11:50.796Z,14.00
2023-01-18T00:14:22.899Z,14.80
2023-01-18T00:16:54.874Z,13.80
2023-01-18T00:19:26.852Z,12.50
2023-01-18T00:21:58.746Z,15.50
2023-01-18T00:24:30.647Z,14.90
2023-01-18T00:27:02.567Z,12.70
2023-01-18T00:29:34.477Z,15.00
2023-01-18T00:32:06.942Z,12.50
2023-01-18T00:34:38.795Z,13.10
2023-01-18T00:37:10.704Z,13.10
2023-01-18T00:39:42.606Z,13.70
2023-01-18T00:42:33.369Z,13.30
2023-01-18T00:45:05.713Z,14.10
2023-01-18T00:47:37.652Z,13.00
2023-01-18T00:50:10.469Z,12.60
2023-01-18T00:55:18.745Z,13.10
2023-01-18T00:57:50.704Z,15.10
2023-01-18T01:00:23.998Z,11.80
2023-01-18T01:02:57.217Z,13.50
2023-01-18T01:05:48.079Z,13.40
2023-01-18T01:08:21.751Z,13.50
2023-01-18T01:11:03.330Z,12.40
2023-01-18T01:13:54.956Z,13.10
2023-01-18T01:16:45.856Z,13.60
2023-01-18T01:19:36.275Z,14.10
2023-01-18T01:22:27.110Z,12.70
2023-01-18T01:25:17.596Z,12.80
2023-01-18T01:27:49.467Z,14.70
2023-01-18T01:30:21.395Z,11.20
2023-01-18T01:32:53.382Z,13.00
2023-01-18T01:35:25.536Z,12.60
2023-01-18T01:37:57.463Z,13.40
2023-01-18T01:40:29.365Z,13.90
2023-01-18T01:43:01.291Z,15.00
2023-01-18T01:45:33.989Z,12.60
2023-01-18T01:48:06.004Z,12.30
2023-01-18T01:50:39.592Z,14.50
2023-01-18T01:53:11.704Z,13.50
2023-01-18T01:55:43.672Z,12.80
2023-01-18T01:58:22.530Z,14.20
2023-01-18T02:00:54.763Z,12.80
2023-01-18T02:03:26.827Z,14.40
2023-01-18T02:06:06.103Z,11.50
2023-01-18T02:08:38.150Z,11.00
2023-01-18T02:11:10.052Z,12.80
2023-01-18T02:13:42.032Z,11.50
2023-01-18T02:16:19.794Z,11.70
2023-01-18T02:19:09.155Z,12.40
2023-01-18T02:21:44.001Z,10.90
2023-01-18T02:24:22.070Z,10.80
2023-01-18T02:26:54.192Z,10.70
2023-01-18T02:29:39.219Z,10.30
2023-01-18T02:32:17.137Z,12.10
2023-01-18T02:34:54.584Z,11.60
2023-01-18T02:37:32.119Z,11.60
2023-01-18T02:40:12.203Z,11.30
2023-01-18T02:43:03.942Z,10.70
2023-01-18T02:46:04.655Z,10.40
2023-01-18T02:48:41.844Z,10.90
2023-01-18T02:51:13.872Z,10.20
2023-01-18T02:53:46.558Z,10.90
2023-01-18T02:56:25.990Z,12.70
2023-01-18T02:59:00.039Z,10.40
2023-01-18T03:01:44.051Z,10.30
2023-01-18T03:04:45.209Z,12.80
2023-01-18T03:07:21.751Z,11.80
2023-01-18T03:09:54.375Z,10.40
2023-01-18T03:12:46.304Z,12.10
2023-01-18T03:15:44.346Z,9.80
2023-01-18T03:18:30.179Z,10.20
2023-01-18T03:21:05.778Z,10.90
2023-01-18T03:23:41.404Z,11.10
2023-01-18T03:26:19.858Z,10.70
2023-01-18T03:29:13.876Z,10.80
2023-01-18T03:32:14.875Z,9.30
2023-01-18T03:34:52.931Z,9.60
2023-01-18T03:37:32.838Z,10.20
2023-01-18T03:40:13.716Z,11.10
2023-01-18T03:43:05.952Z,10.50
2023-01-18T03:45:42.274Z,10.30
2023-01-18T03:48:14.998Z,9.40
2023-01-18T03:50:57.368Z,10.00
2023-01-18T03:54:05.820Z,9.50
2023-01-18T03:57:07.053Z,8.40
2023-01-18T03:59:39.781Z,8.20
2023-01-18T04:02:12.041Z,10.50
2023-01-18T04:04:44.057Z,9.90
2023-01-18T04:07:15.945Z,8.40
2023-01-18T04:09:47.849Z,10.30
2023-01-18T04:12:19.682Z,9.70
2023-01-18T04:14:51.869Z,10.00
2023-01-18T04:17:23.768Z,9.00
2023-01-18T04:19:55.630Z,8.80
2023-01-18T04:22:27.760Z,9.50
2023-01-18T04:24:59.733Z,8.00
2023-01-18T04:27:31.646Z,8.80
2023-01-18T04:30:06.515Z,9.60
2023-01-18T04:32:39.222Z,9.30
2023-01-18T04:35:11.112Z,8.10
2023-01-18T04:37:43.088Z,9.10
2023-01-18T04:40:18.131Z,9.50
2023-01-18T04:42:54.619Z,9.10
2023-01-18T04:45:26.608Z,8.30
2023-01-18T04:47:58.535Z,9.70
2023-01-18T04:50:30.594Z,9.50
2023-01-18T04:53:02.729Z,8.30
2023-01-18T04:55:34.624Z,9.00
2023-01-18T04:58:06.575Z,8.70
2023-01-18T05:00:41.556Z,9.50
2023-01-18T05:03:13.564Z,9.30
2023-01-18T05:05:45.561Z,8.00
2023-01-18T05:08:18.116Z,7.00
2023-01-18T05:10:50.670Z,7.40
2023-01-18T05:13:22.549Z,8.00
2023-01-18T05:15:54.482Z,7.40
2023-01-18T05:18:26.732Z,7.60
2023-01-18T05:20:58.769Z,7.90
2023-01-18T05:23:30.659Z,6.90
2023-01-18T05:26:04.159Z,8.80
2023-01-18T05:28:36.137Z,6.70
2023-01-18T05:31:08.296Z,8.20
2023-01-18T05:33:40.640Z,8.00
2023-01-18T05:36:12.614Z,7.00
2023-01-18T05:38:44.562Z,5.80
2023-01-18T05:41:16.581Z,6.30
2023-01-18T05:43:48.486Z,5.40
2023-01-18T05:46:20.389Z,6.70
2023-01-18T05:48:56.620Z,8.40
2023-01-18T05:51:28.599Z,6.60
2023-01-18T05:54:00.511Z,6.20
2023-01-18T05:56:33.419Z,6.20
2023-01-18T06:01:38.217Z,6.30
2023-01-18T06:04:10.225Z,5.80
2023-01-18T06:06:42.279Z,6.20
2023-01-18T06:09:14.332Z,6.80
2023-01-18T06:11:46.155Z,7.30
2023-01-18T06:14:18.036Z,5.60
2023-01-18T06:16:49.890Z,5.90
2023-01-18T06:19:21.839Z,6.50
2023-01-18T06:21:54.668Z,5.70
2023-01-18T06:26:59.514Z,5.10
2023-01-18T06:32:03.357Z,5.50
2023-01-18T06:34:37.002Z,5.70
2023-01-18T06:37:08.971Z,4.90
2023-01-18T06:39:40.811Z,4.40
2023-01-18T06:42:12.759Z,4.40
2023-01-18T06:44:45.178Z,6.30
2023-01-18T06:47:20.155Z,5.10
2023-01-18T06:49:52.168Z,4.30
2023-01-18T06:52:24.077Z,3.70
2023-01-18T06:54:55.950Z,4.70
2023-01-18T06:57:27.880Z,7.30
2023-01-18T07:00:01.229Z,5.30
2023-01-18T07:02:34.046Z,5.10
2023-01-18T07:05:06.646Z,4.70
2023-01-18T07:07:38.626Z,6.40
2023-01-18T07:10:10.965Z,5.40
2023-01-18T07:12:43.424Z,4.70
2023-01-18T07:15:21.905Z,4.40
2023-01-18T07:17:54.719Z,5.10
2023-01-18T07:20:26.592Z,4.60
2023-01-18T07:22:59.141Z,3.40
2023-01-18T07:25:31.348Z,4.00
2023-01-18T07:28:05.058Z,6.00
2023-01-18T07:30:36.879Z,6.20
2023-01-18T07:33:08.891Z,4.00
2023-01-18T07:35:40.783Z,3.90
2023-01-18T07:38:12.767Z,4.60
2023-01-18T07:40:44.625Z,4.00
2023-01-18T07:43:17.516Z,3.50
2023-01-18T07:48:26.614Z,4.40
2023-01-18T07:51:03.093Z,4.90
2023-01-18T07:53:36.824Z,4.40
2023-01-18T07:56:12.418Z,4.60
2023-01-18T07:58:45.323Z,5.60
2023-01-18T08:06:27.443Z,7.50
2023-01-18T08:09:00.037Z,5.00
2023-01-18T08:11:32.680Z,2.90
2023-01-18T08:14:04.633Z,3.70
2023-01-18T08:16:36.479Z,5.00
2023-01-18T08:19:08.507Z,4.10
2023-01-18T08:21:40.764Z,3.90
2023-01-18T08:24:13.192Z,3.40
2023-01-18T08:26:45.045Z,4.00
2023-01-18T08:29:17.070Z,4.20
2023-01-18T08:31:52.588Z,2.90
2023-01-18T08:34:24.573Z,4.80
2023-01-18T08:36:56.498Z,3.10
2023-01-18T08:39:28.416Z,3.50
2023-01-18T08:42:00.283Z,3.90
2023-01-18T08:44:32.201Z,2.70
2023-01-18T08:47:04.099Z,3.50
2023-01-18T08:49:36.100Z,4.20
2023-01-18T08:52:11.166Z,3.60
2023-01-18T08:54:43.206Z,3.30
2023-01-18T08:57:15.139Z,3.00
2023-01-18T08:59:47.201Z,3.10
2023-01-18T09:02:20.137Z,3.40
2023-01-18T09:04:53.726Z,4.00
2023-01-18T09:07:25.670Z,3.00
2023-01-18T09:09:57.583Z,2.80
2023-01-18T09:12:29.707Z,2.90
2023-01-18T09:15:01.887Z,3.00
2023-01-18T09:17:34.298Z,3.20
2023-01-18T09:20:12.183Z,4.00
2023-01-18T09:22:45.700Z,2.30
2023-01-18T09:25:21.023Z,2.80
2023-01-18T09:27:52.970Z,3.80
2023-01-18T09:30:25.006Z,3.20
2023-01-18T09:32:58.160Z,2.70
2023-01-18T09:35:30.647Z,2.20
2023-01-18T09:38:02.577Z,3.80
2023-01-18T09:40:44.245Z,3.00
2023-01-18T09:43:31.461Z,2.70
2023-01-18T09:46:03.390Z,3.20
2023-01-18T09:48:38.372Z,2.60
2023-01-18T09:51:20.799Z,3.50
2023-01-18T09:54:08.148Z,3.00
2023-01-18T09:56:52.208Z,1.90
2023-01-18T09:59:27.237Z,2.30
2023-01-18T10:02:03.335Z,2.10
2023-01-18T10:04:39.884Z,2.90
2023-01-18T10:07:17.186Z,2.90
2023-01-18T10:09:53.778Z,3.40
2023-01-18T10:12:36.983Z,3.60
2023-01-18T10:17:56.415Z,3.00
2023-01-18T10:20:47.800Z,3.20
2023-01-18T10:23:25.824Z,3.50
2023-01-18T10:26:09.601Z,2.50
2023-01-18T10:28:56.657Z,3.70
2023-01-18T10:31:37.849Z,3.50
2023-01-18T10:34:26.524Z,3.50
2023-01-18T10:37:07.185Z,2.10
2023-01-18T10:39:58.250Z,9.90
2023-01-18T10:42:46.459Z,3.60
2023-01-18T10:45:30.533Z,3.00
2023-01-18T10:48:29.031Z,2.70
2023-01-18T10:51:03.747Z,3.30
2023-01-18T10:53:37.952Z,2.70
2023-01-18T10:56:09.915Z,3.90
2023-01-18T10:58:54.994Z,3.40
2023-01-18T11:01:30.061Z,3.20
2023-01-18T11:04:07.878Z,3.20
2023-01-18T11:06:50.707Z,2.60
2023-01-18T11:09:39.049Z,3.60
2023-01-18T11:12:34.538Z,4.20
2023-01-18T11:15:36.030Z,2.50
2023-01-18T11:18:10.481Z,2.70
2023-01-18T11:20:50.630Z,2.80
2023-01-18T11:23:38.520Z,3.40
2023-01-18T11:26:15.550Z,6.00
2023-01-18T11:29:05.903Z,3.10
2023-01-18T11:31:50.105Z,2.70
2023-01-18T11:34:34.548Z,2.70
2023-01-18T11:37:34.759Z,3.10
2023-01-18T11:40:19.102Z,5.90
2023-01-18T11:42:51.791Z,4.60
2023-01-18T11:45:26.428Z,5.10
2023-01-18T11:48:10.727Z,4.40
2023-01-18T11:50:52.844Z,4.80
2023-01-18T11:53:59.993Z,10.30
2023-01-18T11:56:45.654Z,4.80
2023-01-18T11:59:45.811Z,5.30
2023-01-18T12:02:33.615Z,6.10
2023-01-18T12:05:45.615Z,5.30
2023-01-18T12:08:28.010Z,5.80
2023-01-18T12:11:32.071Z,4.10
2023-01-18T12:14:14.024Z,4.70
2023-01-18T12:17:18.341Z,4.60
2023-01-18T12:19:53.033Z,5.40
2023-01-18T12:22:46.575Z,5.00
2023-01-18T12:25:25.957Z,5.60
2023-01-18T12:28:16.733Z,6.70
2023-01-18T12:30:55.202Z,5.20
2023-01-18T12:33:59.372Z,5.10
2023-01-18T12:36:40.382Z,4.30
2023-01-18T12:39:37.228Z,4.90
2023-01-18T12:42:35.263Z,5.40
2023-01-18T12:45:10.149Z,6.90
2023-01-18T12:47:50.895Z,7.20
2023-01-18T12:50:29.951Z,9.20
2023-01-18T12:53:06.227Z,10.10
2023-01-18T12:55:40.291Z,11.40
2023-01-18T12:58:18.717Z,11.60
2023-01-18T13:00:58.371Z,10.90
2023-01-18T13:03:35.347Z,12.00
2023-01-18T13:06:09.446Z,10.20
2023-01-18T13:08:47.641Z,11.40
2023-01-18T13:11:26.106Z,13.10
2023-01-18T13:14:14.023Z,12.40
2023-01-18T13:17:06.450Z,10.40
2023-01-18T13:19:44.720Z,9.80
2023-01-18T13:22:29.070Z,8.60
2023-01-18T13:25:19.480Z,9.20
2023-01-18T13:28:02.923Z,12.80
2023-01-18T13:30:50.933Z,11.50
2023-01-18T13:33:56.438Z,8.80
2023-01-18T13:36:28.367Z,7.90
2023-01-18T13:39:05.602Z,8.90
2023-01-18T13:41:37.569Z,9.70
2023-01-18T13:44:32.736Z,8.30
2023-01-18T13:47:32.540Z,10.90
2023-01-18T13:50:24.549Z,8.50
2023-01-18T13:53:14.821Z,7.50
2023-01-18T13:55:48.051Z,8.00
2023-01-18T13:58:27.246Z,6.80
2023-01-18T14:01:05.650Z,7.40
2023-01-18T14:03:45.210Z,9.20
2023-01-18T14:06:37.011Z,7.10
2023-01-18T14:09:14.781Z,7.40
2023-01-18T14:11:57.451Z,6.60
2023-01-18T14:14:32.562Z,8.00
2023-01-18T14:17:15.860Z,7.40
2023-01-18T14:19:47.710Z,7.40
2023-01-18T14:22:31.921Z,6.60
2023-01-18T14:25:36.787Z,6.90
2023-01-18T14:28:13.790Z,5.90
2023-01-18T14:30:48.976Z,5.80
2023-01-18T14:33:36.063Z,7.40
2023-01-18T14:36:20.858Z,6.80
2023-01-18T14:39:18.053Z,7.20
2023-01-18T14:41:57.823Z,7.00
2023-01-18T14:44:57.262Z,5.90
2023-01-18T14:47:32.378Z,7.40
2023-01-18T14:50:05.214Z,7.00
2023-01-18T14:52:37.512Z,5.60
2023-01-18T14:55:32.189Z,6.70
2023-01-18T14:58:19.063Z,5.70
2023-01-18T15:00:53.709Z,8.10
2023-01-18T15:03:28.969Z,7.80
2023-01-18T15:06:07.750Z,5.60
2023-01-18T15:08:40.105Z,6.10
2023-01-18T15:11:12.620Z,6.10
2023-01-18T15:13:52.343Z,6.60
2023-01-18T15:16:27.196Z,5.60
2023-01-18T15:18:59.305Z,6.70
2023-01-18T15:21:34.411Z,5.70
2023-01-18T15:24:09.266Z,6.70
2023-01-18T15:26:51.636Z,5.80
2023-01-18T15:29:26.390Z,5.20
2023-01-18T15:32:05.441Z,6.10
2023-01-18T15:34:39.452Z,6.20
2023-01-18T15:37:27.801Z,5.50
2023-01-18T15:40:07.097Z,7.50
2023-01-18T15:42:45.308Z,4.90
2023-01-18T15:45:19.862Z,6.00
2023-01-18T15:48:06.952Z,5.90
2023-01-18T15:50:45.984Z,5.70
2023-01-18T15:53:30.937Z,5.90
2023-01-18T15:56:08.299Z,6.50
2023-01-18T15:58:43.092Z,5.10
2023-01-18T16:01:28.303Z,4.70
2023-01-18T16:04:09.667Z,4.90
2023-01-18T16:06:41.550Z,5.00
2023-01-18T16:09:16.082Z,6.20
2023-01-18T16:11:54.688Z,5.00
2023-01-18T16:14:31.453Z,5.70
2023-01-18T16:17:20.076Z,5.10
2023-01-18T16:19:54.495Z,7.00
2023-01-18T16:22:34.202Z,5.10
2023-01-18T16:25:21.310Z,5.80
2023-01-18T16:27:55.733Z,5.80
2023-01-18T16:30:39.665Z,5.80
2023-01-18T16:33:21.072Z,4.90
2023-01-18T16:35:53.245Z,6.30
2023-01-18T16:38:25.195Z,6.20
2023-01-18T16:40:58.868Z,6.20
2023-01-18T16:43:32.807Z,6.90
2023-01-18T16:46:04.851Z,4.40
2023-01-18T16:48:37.943Z,4.60
2023-01-18T16:51:15.746Z,5.10
2023-01-18T16:53:49.692Z,5.00
2023-01-18T16:56:22.288Z,5.50
2023-01-18T16:58:54.163Z,7.30
2023-01-18T17:01:26.401Z,5.30
2023-01-18T17:03:58.534Z,5.70
2023-01-18T17:06:30.504Z,7.80
2023-01-18T17:09:02.391Z,6.90
2023-01-18T17:11:34.356Z,7.70
2023-01-18T17:14:06.353Z,4.90
2023-01-18T17:16:38.423Z,5.60
2023-01-18T17:19:18.990Z,5.30
2023-01-18T17:21:51.764Z,5.60
2023-01-18T17:24:25.287Z,4.90
2023-01-18T17:26:57.259Z,6.00
2023-01-18T17:29:29.147Z,6.20
2023-01-18T17:32:01.092Z,7.20
2023-01-18T17:34:33.013Z,6.00
2023-01-18T17:37:04.942Z,6.30
2023-01-18T17:39:43.824Z,5.80
2023-01-18T17:42:29.808Z,6.00
2023-01-18T17:45:06.827Z,6.10
2023-01-18T17:47:41.824Z,5.50
2023-01-18T17:50:19.190Z,5.60
2023-01-18T17:52:52.683Z,6.00
2023-01-18T17:55:34.345Z,5.20
2023-01-18T17:58:06.519Z,4.70
2023-01-18T18:00:38.494Z,5.40
2023-01-18T18:03:10.541Z,7.20
2023-01-18T18:05:42.502Z,5.60
2023-01-18T18:08:14.400Z,4.90
2023-01-18T18:10:46.314Z,5.10
2023-01-18T18:13:19.563Z,5.40
2023-01-18T18:15:52.264Z,4.60
2023-01-18T18:18:24.642Z,6.60
2023-01-18T18:20:58.516Z,4.90
2023-01-18T18:23:31.254Z,5.50
2023-01-18T18:26:04.804Z,5.60
2023-01-18T18:28:36.807Z,5.90
2023-01-18T18:31:14.153Z,5.40
2023-01-18T18:33:46.186Z,5.70
2023-01-18T18:36:18.062Z,4.80
2023-01-18T18:38:49.986Z,6.20
2023-01-18T18:41:21.909Z,4.60
2023-01-18T18:43:53.934Z,4.50
2023-01-18T18:46:25.870Z,6.00
2023-01-18T18:48:57.874Z,5.90
2023-01-18T18:51:29.897Z,6.40
2023-01-18T18:54:02.329Z,5.50
2023-01-18T18:56:34.319Z,6.40
2023-01-18T18:59:06.209Z,6.30
2023-01-18T19:01:38.159Z,5.20
2023-01-18T19:04:10.229Z,6.20
2023-01-18T19:06:42.141Z,5.20
2023-01-18T19:09:14.061Z,5.60
2023-01-18T19:11:54.356Z,6.90
2023-01-18T19:14:27.338Z,5.90
2023-01-18T19:17:00.361Z,5.30
2023-01-18T19:19:32.267Z,6.60
2023-01-18T19:22:04.257Z,5.30
2023-01-18T19:24:37.049Z,4.80
2023-01-18T19:27:08.927Z,5.00
2023-01-18T19:29:41.717Z,5.90
2023-01-18T19:34:45.386Z,6.00
2023-01-18T19:37:17.336Z,5.10
2023-01-18T19:39:50.274Z,5.80
2023-01-18T19:42:22.160Z,4.90
2023-01-18T19:44:59.279Z,4.90
2023-01-18T19:47:31.447Z,7.40
2023-01-18T19:50:03.796Z,6.10
2023-01-18T19:52:35.806Z,6.20
2023-01-18T19:55:08.215Z,5.00
2023-01-18T19:57:40.372Z,5.00
2023-01-18T20:00:13.006Z,5.80
2023-01-18T20:02:45.758Z,5.10
2023-01-18T20:07:50.706Z,4.80
2023-01-18T20:12:54.541Z,6.30
2023-01-18T20:15:26.517Z,6.00
2023-01-18T20:17:58.489Z,5.60
2023-01-18T20:20:32.798Z,8.70
2023-01-18T20:23:07.969Z,8.20
2023-01-18T20:25:41.179Z,9.40
2023-01-18T20:28:13.243Z,5.90
2023-01-18T20:30:51.409Z,8.20
2023-01-18T20:33:23.805Z,6.30
2023-01-18T20:35:55.698Z,7.70
2023-01-18T20:38:27.628Z,10.80
2023-01-18T20:41:00.477Z,11.00
2023-01-18T20:46:06.940Z,9.90
2023-01-18T20:48:39.869Z,10.10
2023-01-18T20:53:43.666Z,8.50
2023-01-18T20:56:28.179Z,7.80
2023-01-18T20:59:01.479Z,9.70
2023-01-18T21:01:33.731Z,9.70
2023-01-18T21:04:05.955Z,13.00
2023-01-18T21:06:37.830Z,11.20
2023-01-18T21:09:09.742Z,8.80
2023-01-18T21:11:41.651Z,9.10
2023-01-18T21:14:14.223Z,8.80
2023-01-18T21:16:46.617Z,13.60
2023-01-18T21:19:18.587Z,12.90
2023-01-18T21:21:50.701Z,13.90
2023-01-18T21:24:22.815Z,11.90
2023-01-18T21:26:54.748Z,9.00
2023-01-18T21:29:26.779Z,8.40
2023-01-18T21:31:58.853Z,11.30
2023-01-18T21:34:30.829Z,12.60
2023-01-18T21:37:03.009Z,10.60
2023-01-18T21:39:34.949Z,17.10
2023-01-18T21:42:25.655Z,15.50
2023-01-18T21:45:16.001Z,16.70
2023-01-18T21:47:48.087Z,11.80
2023-01-18T21:50:38.652Z,11.90
2023-01-18T21:53:33.605Z,10.20
2023-01-18T21:56:06.075Z,9.90
2023-01-18T21:58:53.109Z,11.00
2023-01-18T22:01:26.509Z,9.50
2023-01-18T22:04:17.128Z,9.80
2023-01-18T22:06:49.228Z,11.30
2023-01-18T22:09:21.609Z,9.10
2023-01-18T22:11:56.098Z,8.90
2023-01-18T22:14:28.045Z,9.70
2023-01-18T22:16:59.956Z,9.60
2023-01-18T22:19:31.916Z,11.10
2023-01-18T22:22:03.753Z,9.00
2023-01-18T22:24:35.737Z,9.10
2023-01-18T22:27:07.987Z,8.80
2023-01-18T22:29:39.873Z,6.60
2023-01-18T22:32:11.797Z,9.90
2023-01-18T22:34:43.721Z,10.80
2023-01-18T22:37:15.603Z,9.80
2023-01-18T22:39:47.545Z,7.60
2023-01-18T22:42:19.489Z,8.50
2023-01-18T22:44:51.444Z,6.50
2023-01-18T22:47:23.434Z,7.40
2023-01-18T22:49:55.386Z,7.80
2023-01-18T22:52:27.288Z,7.90
2023-01-18T22:54:59.189Z,8.70
2023-01-18T22:57:31.140Z,7.40
2023-01-18T23:00:05.772Z,9.00
2023-01-18T23:02:37.667Z,10.80
2023-01-18T23:05:09.919Z,7.30
2023-01-18T23:07:41.862Z,9.30
2023-01-18T23:10:13.776Z,7.30
2023-01-18T23:12:45.703Z,7.70
2023-01-18T23:15:36.612Z,8.40
2023-01-18T23:18:09.102Z,6.80
2023-01-18T23:20:40.975Z,6.70
2023-01-18T23:23:12.886Z,9.00
2023-01-18T23:25:44.799Z,6.70
2023-01-18T23:28:27.486Z,8.00
2023-01-18T23:30:59.470Z,8.60
2023-01-18T23:33:31.843Z,7.80
2023-01-18T23:36:04.487Z,9.30
2023-01-18T23:38:55.098Z,8.10
2023-01-18T23:41:45.358Z,8.50
2023-01-18T23:44:36.153Z,7.50
2023-01-18T23:47:26.439Z,7.10
2023-01-18T23:50:17.346Z,7.00
2023-01-18T23:53:07.581Z,7.50
2023-01-18T23:55:39.529Z,6.90
2023-01-18T23:58:11.376Z,7.80
